Time;durP1;ratioP1;P1;durP2;ratioP2;P2;SDS_P1;SDS_P2;PMS_P1;PMS_P2;Temp;Humidity;BMP_temperature;BMP_pressure;BME280_temperature;BME280_humidity;BME280_pressure;Samples;Min_cycle;Max_cycle;Signal;HPM_P1;HPM_P2
2023/02/10 00:00:30;;;;;;;25.40;10.70;;;;;;;;;;110602;1259;22143;-77
2023/02/10 00:03:20;;;;;;;26.20;10.60;;;;;;;;;;110445;1277;22133;-77
2023/02/10 00:05:50;;;;;;;23.70;9.90;;;;;;;;;;110318;1277;22080;-77
2023/02/10 00:08:20;;;;;;;20.90;9.80;;;;;;;;;;110483;1277;22136;-77
2023/02/10 00:10:48;;;;;;;29.20;10.50;;;;;;;;;;110478;1261;22138;-77
2023/02/10 00:13:18;;;;;;;22.50;8.30;;;;;;;;;;110273;1277;22125;-77
2023/02/10 00:15:47;;;;;;;26.40;10.00;;;;;;;;;;110306;1277;22130;-77
2023/02/10 00:18:15;;;;;;;22.90;10.50;;;;;;;;;;110465;1277;22843;-77
2023/02/10 00:20:44;;;;;;;26.90;10.20;;;;;;;;;;110555;1258;22204;-77
2023/02/10 00:23:13;;;;;;;22.50;9.50;;;;;;;;;;110203;1277;22110;-77
2023/02/10 00:25:42;;;;;;;21.70;8.90;;;;;;;;;;110285;1277;22164;-77
2023/02/10 00:35:35;;;;;;;21.90;8.00;;;;;;;;;;103940;1289;544838;-79
2023/02/10 00:38:06;;;;;;;23.10;9.20;;;;;;;;;;106409;1285;22543;-82
2023/02/10 00:40:56;;;;;;;23.80;9.80;;;;;;;;;;106422;1285;24360;-81
2023/02/10 00:43:49;;;;;;;;;;;;;;;;;;;;;
2023/02/10 00:46:17;;;;;;;23.90;8.80;;;;;;;;;;106385;1268;22539;-79
2023/02/10 00:49:00;;;;;;;25.80;8.50;;;;;;;;;;102165;1284;5397252;-79
2023/02/10 00:51:52;;;;;;;23.40;9.30;;;;;;;;;;106442;1284;22543;-82
2023/02/10 00:54:23;;;;;;;21.70;8.90;;;;;;;;;;106442;1260;22729;-84
2023/02/10 00:56:55;;;;;;;23.10;8.80;;;;;;;;;;106479;1283;22556;-82
2023/02/10 01:00:30;;;;;;;19.60;8.40;;;;;;;;;;106472;1283;24304;-80
2023/02/10 01:03:01;;;;;;;23.40;8.40;;;;;;;;;;105989;1291;25533;-80
2023/02/10 01:05:52;;;;;;;20.80;8.10;;;;;;;;;;105759;1283;22547;-79
2023/02/10 01:09:08;;;;;;;21.10;7.90;;;;;;;;;;105887;1291;22572;-83
2023/02/10 01:11:41;;;;;;;17.80;7.30;;;;;;;;;;105784;1291;23014;-81
2023/02/10 01:14:29;;;;;;;23.20;8.70;;;;;;;;;;105890;1291;25374;-82
2023/02/10 01:17:38;;;;;;;22.90;8.30;;;;;;;;;;105933;1272;22515;-80
2023/02/10 01:20:28;;;;;;;24.40;8.80;;;;;;;;;;105931;1291;22558;-82
2023/02/10 01:23:47;;;;;;;25.30;9.70;;;;;;;;;;105953;1291;22550;-80
2023/02/10 01:29:05;;;;;;;25.60;9.30;;;;;;;;;;105949;1291;24430;-84
2023/02/10 01:31:55;;;;;;;27.60;11.00;;;;;;;;;;105828;1291;22567;-77
2023/02/10 01:35:03;;;;;;;22.90;9.60;;;;;;;;;;105973;1291;22560;-82
2023/02/10 01:37:54;;;;;;;;;;;;;;;;;;;;;
2023/02/10 01:40:47;;;;;;;21.50;7.90;;;;;;;;;;107093;1272;22699;-84
2023/02/10 01:43:30;;;;;;;20.70;7.70;;;;;;;;;;107290;1272;25333;-81
2023/02/10 01:46:50;;;;;;;21.30;9.20;;;;;;;;;;107224;1251;22489;-78
2023/02/10 01:49:40;;;;;;;23.70;8.80;;;;;;;;;;107168;1273;24418;-83
2023/02/10 01:53:11;;;;;;;;;;;;;;;;;;;;;
2023/02/10 01:56:28;;;;;;;20.40;7.70;;;;;;;;;;106430;1282;22549;-79
2023/02/10 02:03:10;;;;;;;23.00;9.10;;;;;;;;;;106605;1281;22544;-83
2023/02/10 02:05:45;;;;;;;21.50;8.60;;;;;;;;;;106728;1281;25504;-82
2023/02/10 02:08:41;;;;;;;24.10;8.70;;;;;;;;;;106525;1264;24306;-83
2023/02/10 02:11:52;;;;;;;22.70;9.10;;;;;;;;;;106419;1282;25295;-80
2023/02/10 02:14:49;;;;;;;;;;;;;;;;;;;;;
2023/02/10 02:18:12;;;;;;;22.50;9.40;;;;;;;;;;106466;1281;25442;-80
2023/02/10 02:20:55;;;;;;;20.80;7.80;;;;;;;;;;106661;1281;22539;-83
2023/02/10 02:23:54;;;;;;;22.20;8.00;;;;;;;;;;106679;1281;22628;-81
2023/02/10 02:27:13;;;;;;;;;;;;;;;;;;;;;
2023/02/10 02:29:48;;;;;;;20.10;8.30;;;;;;;;;;106839;1274;23990;-82
2023/02/10 02:32:49;;;;;;;22.40;8.80;;;;;;;;;;107138;1274;25107;-84
2023/02/10 02:35:59;;;;;;;25.80;9.50;;;;;;;;;;107012;1274;24196;-78
2023/02/10 02:38:49;;;;;;;21.30;9.10;;;;;;;;;;107156;1253;25040;-82
2023/02/10 02:45:29;;;;;;;;;;;;;;;;;;;;;
2023/02/10 02:48:25;;;;;;;29.10;11.20;;;;;;;;;;106771;1256;26463;-80
2023/02/10 02:51:53;;;;;;;23.50;9.40;;;;;;;;;;106707;1280;25294;-83
2023/02/10 02:55:12;;;;;;;;;;;;;;;;;;;;;
2023/02/10 02:58:10;;;;;;;21.60;9.10;;;;;;;;;;106516;1280;25260;-82
2023/02/10 03:01:06;;;;;;;24.00;10.10;;;;;;;;;;106360;1268;22558;-80
2023/02/10 03:04:14;;;;;;;23.70;9.90;;;;;;;;;;106691;1280;22539;-79
2023/02/10 03:07:21;;;;;;;23.70;10.00;;;;;;;;;;106628;1280;24231;-79
2023/02/10 03:09:55;;;;;;;24.20;9.80;;;;;;;;;;106705;1260;22537;-85
2023/02/10 03:13:25;;;;;;;20.90;9.00;;;;;;;;;;106682;1279;25284;-85
2023/02/10 03:19:23;;;;;;;22.40;8.90;;;;;;;;;;106712;1263;26486;-81
2023/02/10 03:22:05;;;;;;;22.90;10.80;;;;;;;;;;106945;1274;24365;-83
2023/02/10 03:24:57;;;;;;;25.10;9.80;;;;;;;;;;107148;1263;22544;-80
2023/02/10 03:28:05;;;;;;;23.10;8.80;;;;;;;;;;107139;1274;22626;-84
2023/02/10 03:31:03;;;;;;;;;;;;;;;;;;;;;
2023/02/10 03:33:59;;;;;;;22.00;9.20;;;;;;;;;;106732;1280;22539;-81
2023/02/10 03:36:50;;;;;;;23.50;9.70;;;;;;;;;;106750;1280;22537;-80
2023/02/10 03:39:21;;;;;;;25.00;9.00;;;;;;;;;;106481;1257;22503;-82
2023/02/10 03:42:35;;;;;;;27.20;9.70;;;;;;;;;;106456;1280;24262;-81
2023/02/10 03:45:27;;;;;;;25.60;10.70;;;;;;;;;;106718;1280;25538;-84
2023/02/10 03:48:37;;;;;;;24.80;10.10;;;;;;;;;;106626;1280;22644;-84
2023/02/10 03:51:27;;;;;;;27.40;10.10;;;;;;;;;;106591;1262;22533;-81
2023/02/10 03:54:08;;;;;;;26.00;11.60;;;;;;;;;;106709;1280;23478;-83
2023/02/10 03:57:54;;;;;;;24.70;10.00;;;;;;;;;;106751;1280;25373;-82
2023/02/10 04:00:18;;;;;;;22.50;9.50;;;;;;;;;;106647;1281;22554;-84
2023/02/10 04:03:05;;;;;;;22.60;9.00;;;;;;;;;;106620;1280;23131;-83
2023/02/10 04:06:41;;;;;;;25.80;9.60;;;;;;;;;;106455;1280;22554;-78
2023/02/10 04:09:18;;;;;;;24.80;10.30;;;;;;;;;;106640;1280;25691;-81
2023/02/10 04:16:06;;;;;;;22.40;9.30;;;;;;;;;;107210;1272;22493;-81
2023/02/10 04:18:39;;;;;;;25.20;9.90;;;;;;;;;;107257;1272;22593;-79
2023/02/10 04:21:16;;;;;;;23.50;8.80;;;;;;;;;;107109;1253;22736;-77
2023/02/10 04:23:52;;;;;;;21.60;8.80;;;;;;;;;;106933;1273;22604;-79
2023/02/10 04:27:21;;;;;;;28.20;10.90;;;;;;;;;;107052;1266;25482;-77
2023/02/10 04:30:52;;;;;;;25.60;10.10;;;;;;;;;;107180;1273;22575;-78
2023/02/10 04:34:10;;;;;;;25.10;9.50;;;;;;;;;;107182;1259;22526;-80
2023/02/10 04:43:34;;;;;;;24.20;8.90;;;;;;;;;;106715;1280;25239;-78
2023/02/10 04:46:29;;;;;;;;;;;;;;;;;;;;;
2023/02/10 04:49:39;;;;;;;20.20;8.70;;;;;;;;;;106695;1280;24263;-78
2023/02/10 04:52:35;;;;;;;24.30;10.00;;;;;;;;;;106683;1262;22535;-79
2023/02/10 04:55:36;;;;;;;;;;;;;;;;;;;;;
2023/02/10 04:58:15;;;;;;;22.00;9.40;;;;;;;;;;106721;1280;25085;-77
2023/02/10 05:01:15;;;;;;;29.10;10.30;;;;;;;;;;106554;1280;22536;-85
2023/02/10 05:07:12;;;;;;;25.10;10.30;;;;;;;;;;106613;1280;22536;-79
2023/02/10 05:09:42;;;;;;;30.50;12.10;;;;;;;;;;106744;1280;22543;-79
2023/02/10 05:13:35;;;;;;;33.80;12.10;;;;;;;;;;106772;1273;22610;-79
2023/02/10 05:16:17;;;;;;;26.80;11.00;;;;;;;;;;107244;1273;24338;-79
2023/02/10 05:19:26;;;;;;;25.60;9.90;;;;;;;;;;107255;1273;25306;-80
2023/02/10 05:22:21;;;;;;;;;;;;;;;;;;;;;
2023/02/10 05:25:29;;;;;;;27.80;9.80;;;;;;;;;;107152;1253;24210;-81
2023/02/10 05:28:02;;;;;;;23.10;10.10;;;;;;;;;;107196;1273;22654;-83
2023/02/10 05:31:34;;;;;;;29.40;11.90;;;;;;;;;;107157;1273;22551;-79
2023/02/10 05:34:17;;;;;;;24.00;9.90;;;;;;;;;;107581;1263;22575;-77
2023/02/10 05:37:08;;;;;;;27.70;10.80;;;;;;;;;;107126;1273;22539;-77
2023/02/10 05:40:18;;;;;;;21.00;8.80;;;;;;;;;;107290;1272;22928;-81
2023/02/10 05:43:09;;;;;;;26.60;11.00;;;;;;;;;;107200;1272;22532;-83
2023/02/10 05:45:41;;;;;;;27.80;11.30;;;;;;;;;;106977;1257;22549;-78
2023/02/10 05:48:39;;;;;;;;;;;;;;;;;;;;;
2023/02/10 05:52:25;;;;;;;24.60;10.70;;;;;;;;;;107142;1274;22553;-79
2023/02/10 05:55:07;;;;;;;24.00;8.70;;;;;;;;;;106664;1260;24263;-79
2023/02/10 05:57:52;;;;;;;;;;;;;;;;;;;;;
2023/02/10 06:00:43;;;;;;;24.40;10.00;;;;;;;;;;106713;1279;22537;-81
2023/02/10 06:03:51;;;;;;;23.40;10.80;;;;;;;;;;106522;1279;22523;-83
2023/02/10 06:07:06;;;;;;;28.00;10.40;;;;;;;;;;106660;1262;24322;-78
2023/02/10 06:10:09;;;;;;;21.50;9.30;;;;;;;;;;106190;1280;24205;-81
2023/02/10 06:12:57;;;;;;;;;;;;;;;;;;;;;
2023/02/10 06:16:08;;;;;;;31.50;13.40;;;;;;;;;;106267;1278;22615;-81
2023/02/10 06:18:48;;;;;;;34.90;14.10;;;;;;;;;;106177;1281;24718;-79
2023/02/10 06:21:59;;;;;;;32.90;13.50;;;;;;;;;;106105;1286;25258;-77
2023/02/10 06:24:35;;;;;;;;;;;;;;;;;;;;;
2023/02/10 06:27:48;;;;;;;36.60;13.90;;;;;;;;;;106127;1270;25295;-78
2023/02/10 06:30:26;;;;;;;40.70;15.10;;;;;;;;;;106056;1286;22533;-79
2023/02/10 06:33:58;;;;;;;37.20;14.10;;;;;;;;;;106589;1275;22543;-81
2023/02/10 06:36:43;;;;;;;35.80;13.10;;;;;;;;;;106484;1262;22541;-82
2023/02/10 06:45:55;;;;;;;39.40;16.70;;;;;;;;;;106278;1268;22582;-89
2023/02/10 06:48:45;;;;;;;43.70;17.70;;;;;;;;;;106653;1281;22749;-79
2023/02/10 06:51:33;;;;;;;58.50;23.00;;;;;;;;;;106390;1281;22527;-77
2023/02/10 06:54:02;;;;;;;53.50;19.40;;;;;;;;;;107223;1281;23911;-79
2023/02/10 06:56:51;;;;;;;50.10;17.50;;;;;;;;;;106647;1262;25415;-79
2023/02/10 07:00:06;;;;;;;47.90;16.70;;;;;;;;;;106488;1281;24238;-79
2023/02/10 07:03:14;;;;;;;47.40;18.80;;;;;;;;;;106689;1281;25291;-79
2023/02/10 07:06:18;;;;;;;46.40;16.40;;;;;;;;;;106666;1281;23433;-80
2023/02/10 07:08:51;;;;;;;37.00;13.40;;;;;;;;;;106697;1281;22536;-83
2023/02/10 07:11:26;;;;;;;38.50;13.10;;;;;;;;;;106627;1281;25355;-77
2023/02/10 07:14:16;;;;;;;38.80;14.50;;;;;;;;;;106696;1281;25393;-79
2023/02/10 07:17:50;;;;;;;50.90;18.50;;;;;;;;;;106433;1259;22586;-83
2023/02/10 07:20:13;;;;;;;59.60;19.10;;;;;;;;;;106126;1287;22542;-83
2023/02/10 07:23:03;;;;;;;47.80;18.50;;;;;;;;;;106230;1283;22542;-83
2023/02/10 07:26:12;;;;;;;71.20;26.80;;;;;;;;;;106459;1283;22551;-83
2023/02/10 07:32:17;;;;;;;50.90;18.50;;;;;;;;;;106505;1283;24271;-78
2023/02/10 07:35:14;;;;;;;;;;;;;;;;;;;;;
2023/02/10 07:38:22;;;;;;;66.20;24.10;;;;;;;;;;105949;1273;24270;-78
2023/02/10 07:41:30;;;;;;;75.80;20.80;;;;;;;;;;106215;1286;22543;-78
2023/02/10 07:47:10;;;;;;;56.50;20.40;;;;;;;;;;106040;1287;22504;-77
2023/02/10 07:50:01;;;;;;;50.80;19.10;;;;;;;;;;106233;1274;26597;-77
2023/02/10 07:55:57;;;;;;;51.10;19.80;;;;;;;;;;105823;1292;22571;-85
2023/02/10 07:58:39;;;;;;;45.80;18.60;;;;;;;;;;106299;1273;22529;-79
2023/02/10 08:01:53;;;;;;;35.00;15.10;;;;;;;;;;106119;1286;22533;-77
2023/02/10 08:05:01;;;;;;;32.60;14.10;;;;;;;;;;106348;1281;25373;-78
2023/02/10 08:08:10;;;;;;;30.00;12.80;;;;;;;;;;106307;1275;22563;-77
2023/02/10 08:10:52;;;;;;;31.90;12.80;;;;;;;;;;106277;1286;24260;-84
2023/02/10 08:13:39;;;;;;;27.00;11.90;;;;;;;;;;106070;1281;24146;-80
2023/02/10 08:16:38;;;;;;;36.10;13.30;;;;;;;;;;106740;1279;25225;-78
2023/02/10 08:19:26;;;;;;;30.10;13.20;;;;;;;;;;106768;1260;24378;-84
2023/02/10 08:22:16;;;;;;;32.40;13.30;;;;;;;;;;106866;1280;22787;-77
2023/02/10 08:25:30;;;;;;;31.20;13.60;;;;;;;;;;106756;1280;25287;-82
2023/02/10 08:28:05;;;;;;;;;;;;;;;;;;;;;
2023/02/10 08:30:43;;;;;;;33.70;14.20;;;;;;;;;;106799;1262;24227;-83
2023/02/10 08:33:42;;;;;;;27.00;12.80;;;;;;;;;;107061;1272;25337;-78
2023/02/10 08:36:39;;;;;;;;;;;;;;;;;;;;;
2023/02/10 08:39:36;;;;;;;35.50;14.00;;;;;;;;;;107163;1256;25465;-78
2023/02/10 08:42:06;;;;;;;35.30;15.30;;;;;;;;;;107170;1274;24238;-82
2023/02/10 08:44:36;;;;;;;39.60;15.10;;;;;;;;;;107137;1274;22523;-81
2023/02/10 08:47:16;;;;;;;;;;;;;;;;;;;;;
2023/02/10 08:50:06;;;;;;;36.60;15.90;;;;;;;;;;107200;1253;25468;-78
2023/02/10 08:53:50;;;;;;;38.20;14.80;;;;;;;;;;107220;1273;22525;-84
2023/02/10 08:56:14;;;;;;;34.90;14.20;;;;;;;;;;107282;1273;22526;-82
2023/02/10 08:59:01;;;;;;;34.40;14.60;;;;;;;;;;107212;1273;22522;-80
2023/02/10 09:01:52;;;;;;;33.20;14.60;;;;;;;;;;107138;1256;22653;-80
2023/02/10 09:04:39;;;;;;;28.70;13.30;;;;;;;;;;107071;1272;22713;-78
2023/02/10 09:07:37;;;;;;;35.10;15.40;;;;;;;;;;107091;1267;22536;-78
2023/02/10 09:10:10;;;;;;;36.40;14.60;;;;;;;;;;107093;1252;22670;-78
2023/02/10 09:13:02;;;;;;;36.30;15.60;;;;;;;;;;107116;1266;25650;-77
2023/02/10 09:15:50;;;;;;;35.20;15.20;;;;;;;;;;107207;1273;24187;-77
2023/02/10 09:18:26;;;;;;;42.80;17.40;;;;;;;;;;107289;1267;22538;-81
2023/02/10 09:20:53;;;;;;;34.10;14.60;;;;;;;;;;107072;1250;22570;-79
2023/02/10 09:23:51;;;;;;;;;;;;;;;;;;;;;
2023/02/10 09:27:09;;;;;;;35.00;14.80;;;;;;;;;;106569;1278;22571;-78
2023/02/10 09:36:55;;;;;;;;;;;;;;;;;;;;;
2023/02/10 09:39:25;;;;;;;39.30;16.90;;;;;;;;;;106014;1282;24251;-79
2023/02/10 09:42:01;;;;;;;37.20;15.10;;;;;;;;;;106094;1285;22974;-77
2023/02/10 09:44:33;;;;;;;37.00;16.70;;;;;;;;;;105937;1288;21792;-79
2023/02/10 09:47:24;;;;;;;36.20;15.60;;;;;;;;;;106056;1270;25383;-78
2023/02/10 09:50:14;;;;;;;32.70;12.40;;;;;;;;;;102314;1279;5376706;-78
2023/02/10 09:53:22;;;;;;;38.40;17.30;;;;;;;;;;106349;1278;25449;-77
2023/02/10 09:55:50;;;;;;;39.10;16.00;;;;;;;;;;106017;1263;25465;-78
2023/02/10 09:59:10;;;;;;;;;;;;;;;;;;;;;
2023/02/10 10:02:03;;;;;;;41.80;16.90;;;;;;;;;;106307;1286;22745;-80
2023/02/10 10:05:00;;;;;;;38.30;15.90;;;;;;;;;;106440;1273;22534;-79
2023/02/10 10:07:39;;;;;;;38.50;16.70;;;;;;;;;;106721;1261;22884;-78
2023/02/10 10:10:26;;;;;;;39.90;17.00;;;;;;;;;;106598;1273;22548;-83
2023/02/10 10:12:56;;;;;;;37.70;16.80;;;;;;;;;;106456;1276;22489;-78
2023/02/10 10:15:31;;;;;;;41.70;18.40;;;;;;;;;;106532;1272;24218;-79
2023/02/10 10:18:25;;;;;;;39.80;17.60;;;;;;;;;;106454;1260;25474;-78
2023/02/10 10:21:25;;;;;;;40.00;17.10;;;;;;;;;;106870;1279;25291;-80
2023/02/10 10:24:01;;;;;;;37.40;16.30;;;;;;;;;;106709;1272;22545;-77
2023/02/10 10:26:37;;;;;;;39.80;16.70;;;;;;;;;;106799;1257;22554;-78
2023/02/10 10:29:13;;;;;;;42.50;18.10;;;;;;;;;;106800;1272;22557;-79
2023/02/10 10:32:27;;;;;;;47.50;19.50;;;;;;;;;;106823;1278;25574;-78
2023/02/10 10:35:11;;;;;;;44.60;19.10;;;;;;;;;;106766;1270;22554;-80
2023/02/10 10:38:01;;;;;;;44.10;19.00;;;;;;;;;;106917;1259;25369;-78
2023/02/10 10:40:40;;;;;;;;;;;;;;;;;;;;;
2023/02/10 10:43:32;;;;;;;41.70;17.80;;;;;;;;;;107012;1272;22579;-81
2023/02/10 10:46:26;;;;;;;38.90;18.20;;;;;;;;;;107245;1271;22682;-79
2023/02/10 10:49:23;;;;;;;38.80;16.70;;;;;;;;;;106910;1270;22536;-76
2023/02/10 10:52:41;;;;;;;41.70;17.60;;;;;;;;;;107272;1270;23036;-79
2023/02/10 10:55:21;;;;;;;42.60;18.00;;;;;;;;;;106773;1272;22732;-79
2023/02/10 10:58:02;;;;;;;36.20;17.10;;;;;;;;;;106815;1259;22536;-78
2023/02/10 11:00:54;;;;;;;43.20;19.10;;;;;;;;;;106742;1278;22532;-82
2023/02/10 11:03:22;;;;;;;40.30;17.00;;;;;;;;;;106806;1278;24170;-77
2023/02/10 11:05:58;;;;;;;37.50;17.90;;;;;;;;;;106945;1278;22643;-80
2023/02/10 11:08:41;;;;;;;49.10;19.80;;;;;;;;;;106861;1259;23922;-79
2023/02/10 11:11:17;;;;;;;36.60;17.80;;;;;;;;;;106861;1278;25454;-80
2023/02/10 11:14:24;;;;;;;;;;;;;;;;;;;;;
2023/02/10 11:17:34;;;;;;;40.10;17.90;;;;;;;;;;106778;1272;22540;-78
2023/02/10 11:20:34;;;;;;;40.90;19.10;;;;;;;;;;106754;1262;22543;-78
2023/02/10 11:23:03;;;;;;;36.70;19.80;;;;;;;;;;106788;1279;25473;-79
2023/02/10 11:25:53;;;;;;;38.60;19.60;;;;;;;;;;106819;1279;22542;-78
2023/02/10 11:28:25;;;;;;;39.20;18.90;;;;;;;;;;106698;1279;22567;-81
2023/02/10 11:31:19;;;;;;;36.30;17.40;;;;;;;;;;106721;1279;23880;-84
2023/02/10 11:34:15;;;;;;;36.40;17.00;;;;;;;;;;106802;1279;22533;-80
2023/02/10 11:36:55;;;;;;;;;;;;;;;;;;;;;
2023/02/10 11:39:55;;;;;;;41.40;18.80;;;;;;;;;;106432;1264;23887;-79
2023/02/10 11:42:30;;;;;;;37.00;16.90;;;;;;;;;;106432;1282;22558;-77
2023/02/10 11:45:17;;;;;;;33.40;15.40;;;;;;;;;;106426;1274;25348;-77
2023/02/10 11:48:04;;;;;;;30.70;14.60;;;;;;;;;;106529;1259;22555;-79
2023/02/10 11:50:33;;;;;;;31.20;13.80;;;;;;;;;;106456;1262;22561;-76
2023/02/10 11:53:24;;;;;;;31.50;15.20;;;;;;;;;;106437;1281;25298;-78
2023/02/10 11:56:12;;;;;;;32.10;15.00;;;;;;;;;;106657;1278;22540;-80
2023/02/10 11:59:06;;;;;;;32.30;14.30;;;;;;;;;;106626;1275;25333;-78
2023/02/10 12:01:54;;;;;;;;;;;;;;;;;;;;;
2023/02/10 12:04:24;;;;;;;28.40;12.40;;;;;;;;;;106351;1273;22507;-78
2023/02/10 12:07:09;;;;;;;24.00;8.60;;;;;;;;;;106342;1275;22676;-78
2023/02/10 12:10:07;;;;;;;23.70;7.50;;;;;;;;;;106466;1277;22668;-82
2023/02/10 12:12:49;;;;;;;19.80;7.00;;;;;;;;;;106350;1277;22587;-79
2023/02/10 12:15:39;;;;;;;20.00;7.50;;;;;;;;;;106320;1277;22546;-79
2023/02/10 12:18:22;;;;;;;18.90;6.50;;;;;;;;;;106337;1276;23038;-80
2023/02/10 12:21:10;;;;;;;21.10;7.00;;;;;;;;;;106345;1262;24368;-78
2023/02/10 12:23:37;;;;;;;22.40;7.00;;;;;;;;;;106607;1274;24296;-78
2023/02/10 12:26:30;;;;;;;18.40;7.20;;;;;;;;;;106517;1273;22591;-77
2023/02/10 12:29:58;;;;;;;24.00;9.10;;;;;;;;;;106668;1275;23905;-77
2023/02/10 12:32:45;;;;;;;18.70;6.60;;;;;;;;;;106396;1267;24205;-78
2023/02/10 12:35:34;;;;;;;18.20;5.20;;;;;;;;;;106503;1273;22600;-78
2023/02/10 12:38:44;;;;;;;17.00;5.70;;;;;;;;;;106808;1274;22536;-81
2023/02/10 12:41:44;;;;;;;20.80;6.00;;;;;;;;;;106887;1259;24498;-77
2023/02/10 12:44:28;;;;;;;18.90;5.90;;;;;;;;;;106365;1275;22556;-80
2023/02/10 12:47:10;;;;;;;16.70;5.10;;;;;;;;;;106419;1275;22540;-80
2023/02/10 12:50:06;;;;;;;13.30;4.40;;;;;;;;;;106456;1280;22570;-79
2023/02/10 12:52:39;;;;;;;16.50;5.40;;;;;;;;;;106206;1267;24511;-77
2023/02/10 12:55:10;;;;;;;18.30;5.80;;;;;;;;;;106573;1275;25852;-81
2023/02/10 12:58:06;;;;;;;22.00;6.40;;;;;;;;;;106467;1275;25501;-79
2023/02/10 13:00:57;;;;;;;17.00;5.70;;;;;;;;;;106422;1275;22650;-77
2023/02/10 13:03:31;;;;;;;14.90;5.20;;;;;;;;;;106383;1276;22775;-76
2023/02/10 13:06:46;;;;;;;17.40;5.60;;;;;;;;;;106412;1275;25393;-80
2023/02/10 13:09:39;;;;;;;17.40;6.10;;;;;;;;;;105920;1284;26597;-79
2023/02/10 13:12:44;;;;;;;17.60;5.80;;;;;;;;;;105747;1273;24234;-79
2023/02/10 13:15:35;;;;;;;15.80;6.20;;;;;;;;;;105757;1283;24252;-77
2023/02/10 13:18:02;;;;;;;17.50;5.60;;;;;;;;;;105891;1288;22548;-77
2023/02/10 13:20:48;;;;;;;18.00;6.70;;;;;;;;;;106178;1278;22540;-78
2023/02/10 13:23:23;;;;;;;17.00;5.90;;;;;;;;;;106434;1268;22639;-77
2023/02/10 13:26:28;;;;;;;15.90;6.00;;;;;;;;;;106411;1271;22658;-79
2023/02/10 13:29:22;;;;;;;20.70;6.70;;;;;;;;;;106293;1283;22502;-79
2023/02/10 13:32:18;;;;;;;40.90;14.50;;;;;;;;;;106512;1285;24267;-77
2023/02/10 13:34:47;;;;;;;21.40;7.70;;;;;;;;;;106454;1285;24334;-76
2023/02/10 13:37:19;;;;;;;24.00;9.00;;;;;;;;;;106497;1285;22594;-78
2023/02/10 13:43:43;;;;;;;23.80;10.90;;;;;;;;;;106161;1271;22590;-77
2023/02/10 13:46:31;;;;;;;18.80;7.50;;;;;;;;;;106322;1279;25274;-78
2023/02/10 13:49:28;;;;;;;;;;;;;;;;;;;;;
2023/02/10 13:52:34;;;;;;;;;;;;;;;;;;;;;
2023/02/10 13:55:27;;;;;;;60.00;18.00;;;;;;;;;;107021;1269;24202;-79
2023/02/10 13:58:16;;;;;;;25.20;9.00;;;;;;;;;;107009;1269;25192;-79
2023/02/10 14:01:25;;;;;;;16.10;6.00;;;;;;;;;;106780;1269;22773;-77
2023/02/10 14:03:56;;;;;;;34.80;13.20;;;;;;;;;;106897;1258;22531;-79
2023/02/10 14:06:52;;;;;;;32.70;12.60;;;;;;;;;;106813;1269;24259;-77
2023/02/10 14:09:34;;;;;;;43.10;16.40;;;;;;;;;;106795;1269;22540;-77
2023/02/10 14:12:04;;;;;;;63.40;22.20;;;;;;;;;;107006;1270;24615;-76
2023/02/10 14:14:35;;;;;;;61.20;20.70;;;;;;;;;;110342;1272;22254;-76
2023/02/10 14:17:04;;;;;;;59.40;19.90;;;;;;;;;;110398;1277;22333;-76
2023/02/10 14:19:33;;;;;;;48.40;17.70;;;;;;;;;;110318;1277;23291;-77
2023/02/10 14:22:00;;;;;;;31.80;13.10;;;;;;;;;;110329;1274;22420;-77
2023/02/10 14:24:32;;;;;;;26.30;9.90;;;;;;;;;;110440;1259;22949;-75
2023/02/10 14:27:19;;;;;;;33.90;12.60;;;;;;;;;;110324;1272;22417;-78
2023/02/10 14:29:54;;;;;;;28.60;11.20;;;;;;;;;;110255;1275;22156;-77
2023/02/10 14:32:39;;;;;;;21.50;8.80;;;;;;;;;;110421;1256;22514;-77
2023/02/10 14:35:15;;;;;;;14.80;5.70;;;;;;;;;;110211;1277;22856;-76
2023/02/10 14:37:51;;;;;;;16.40;6.00;;;;;;;;;;110323;1277;22123;-77
2023/02/10 14:40:19;;;;;;;18.10;5.70;;;;;;;;;;110458;1272;22151;-76
2023/02/10 14:42:46;;;;;;;17.20;5.80;;;;;;;;;;110225;1256;22388;-77
2023/02/10 14:45:26;;;;;;;22.60;6.90;;;;;;;;;;110277;1275;22129;-76
2023/02/10 14:47:56;;;;;;;18.00;6.80;;;;;;;;;;110280;1277;22121;-77
2023/02/10 14:50:34;;;;;;;18.20;6.60;;;;;;;;;;110460;1277;22863;-75
2023/02/10 14:53:01;;;;;;;20.10;6.80;;;;;;;;;;110420;1256;22192;-81
2023/02/10 14:55:30;;;;;;;18.20;7.40;;;;;;;;;;110299;1277;22143;-76
2023/02/10 14:58:05;;;;;;;20.60;8.10;;;;;;;;;;110313;1277;22907;-76
2023/02/10 15:00:33;;;;;;;19.90;7.20;;;;;;;;;;110301;1277;22143;-76
2023/02/10 15:03:01;;;;;;;30.70;8.80;;;;;;;;;;110300;1276;22388;-77
2023/02/10 15:05:31;;;;;;;32.40;11.50;;;;;;;;;;110228;1262;22178;-77
2023/02/10 15:08:07;;;;;;;29.60;10.90;;;;;;;;;;110293;1277;22141;-76
2023/02/10 15:10:42;;;;;;;25.60;9.90;;;;;;;;;;110470;1277;22921;-76
2023/02/10 15:13:10;;;;;;;30.30;12.80;;;;;;;;;;110301;1277;22818;-75
2023/02/10 15:15:41;;;;;;;35.70;13.80;;;;;;;;;;110708;1259;22189;-76
2023/02/10 15:18:12;;;;;;;34.70;13.30;;;;;;;;;;110447;1277;22102;-76
2023/02/10 15:20:40;;;;;;;36.40;13.80;;;;;;;;;;110298;1277;22156;-77
2023/02/10 15:23:17;;;;;;;33.20;12.50;;;;;;;;;;110426;1277;22163;-75
2023/02/10 15:25:43;;;;;;;36.90;13.90;;;;;;;;;;110670;1259;22107;-76
2023/02/10 15:28:11;;;;;;;34.80;12.90;;;;;;;;;;110330;1277;22283;-76
2023/02/10 15:31:14;;;;;;;32.60;13.70;;;;;;;;;;110265;1279;22852;-76
2023/02/10 15:33:45;;;;;;;25.10;10.30;;;;;;;;;;110250;1268;22381;-77
2023/02/10 15:36:25;;;;;;;32.30;13.10;;;;;;;;;;110158;1262;22132;-75
2023/02/10 15:38:55;;;;;;;31.30;12.90;;;;;;;;;;110185;1268;21993;-77
2023/02/10 15:41:36;;;;;;;30.40;12.10;;;;;;;;;;110235;1279;22278;-76
2023/02/10 15:44:35;;;;;;;30.10;13.00;;;;;;;;;;110245;1256;22359;-76
2023/02/10 15:47:21;;;;;;;28.10;11.20;;;;;;;;;;110260;1279;22204;-77
2023/02/10 15:49:52;;;;;;;31.50;12.40;;;;;;;;;;110142;1279;22335;-77
2023/02/10 15:52:24;;;;;;;25.10;9.80;;;;;;;;;;110148;1279;22909;-76
2023/02/10 15:54:52;;;;;;;27.30;11.60;;;;;;;;;;110260;1262;22881;-77
2023/02/10 15:57:19;;;;;;;31.60;14.40;;;;;;;;;;110265;1279;22109;-77
2023/02/10 15:59:50;;;;;;;24.50;10.20;;;;;;;;;;110271;1279;22871;-77
2023/02/10 16:02:18;;;;;;;25.50;10.10;;;;;;;;;;110178;1278;22112;-77
2023/02/10 16:04:46;;;;;;;23.20;9.00;;;;;;;;;;110322;1256;22166;-77
2023/02/10 16:07:18;;;;;;;32.00;11.40;;;;;;;;;;110258;1279;22577;-76
2023/02/10 16:09:45;;;;;;;25.30;10.10;;;;;;;;;;110152;1279;22314;-77
2023/02/10 16:12:11;;;;;;;27.10;10.60;;;;;;;;;;110199;1279;22136;-76
2023/02/10 16:14:39;;;;;;;26.00;9.80;;;;;;;;;;110255;1257;22349;-77
2023/02/10 16:17:16;;;;;;;25.10;9.80;;;;;;;;;;110177;1279;22137;-79
2023/02/10 16:19:43;;;;;;;25.80;10.10;;;;;;;;;;110182;1279;22176;-77
2023/02/10 16:22:10;;;;;;;20.30;8.20;;;;;;;;;;110274;1279;22108;-77
2023/02/10 16:24:37;;;;;;;19.80;8.00;;;;;;;;;;110254;1279;22791;-78
2023/02/10 16:27:06;;;;;;;23.00;7.60;;;;;;;;;;110470;1271;22878;-77
2023/02/10 16:29:33;;;;;;;17.90;7.50;;;;;;;;;;110269;1279;22115;-78
2023/02/10 16:32:00;;;;;;;19.80;6.90;;;;;;;;;;110226;1280;22206;-77
2023/02/10 16:34:30;;;;;;;17.50;6.30;;;;;;;;;;110131;1280;23140;-78
2023/02/10 16:44:02;;;;;;;17.30;5.60;;;;;;;;;;110055;1282;22167;-77
2023/02/10 16:46:29;;;;;;;18.00;6.20;;;;;;;;;;110215;1262;22213;-77
2023/02/10 16:48:57;;;;;;;14.40;5.20;;;;;;;;;;110063;1282;22164;-79
2023/02/10 16:51:24;;;;;;;18.80;7.70;;;;;;;;;;109998;1282;22053;-77
2023/02/10 16:54:08;;;;;;;19.00;7.00;;;;;;;;;;110041;1275;22201;-77
2023/02/10 16:56:39;;;;;;;30.50;11.80;;;;;;;;;;110168;1259;22192;-77
2023/02/10 16:59:08;;;;;;;41.50;13.80;;;;;;;;;;110043;1282;22921;-80
2023/02/10 17:01:34;;;;;;;30.00;10.30;;;;;;;;;;110007;1282;22175;-77
2023/02/10 17:04:02;;;;;;;32.40;12.20;;;;;;;;;;110047;1282;22172;-77
2023/02/10 17:06:32;;;;;;;36.20;13.00;;;;;;;;;;110126;1259;22203;-77
2023/02/10 17:08:59;;;;;;;37.60;14.20;;;;;;;;;;110063;1282;22153;-78
2023/02/10 17:11:26;;;;;;;33.20;14.10;;;;;;;;;;110071;1281;22184;-78
2023/02/10 17:13:53;;;;;;;52.90;19.30;;;;;;;;;;110069;1282;22217;-77
2023/02/10 17:16:31;;;;;;;59.20;22.60;;;;;;;;;;110067;1262;22147;-77
2023/02/10 17:19:01;;;;;;;58.60;22.10;;;;;;;;;;110246;1280;22985;-76
2023/02/10 17:21:28;;;;;;;55.60;22.10;;;;;;;;;;110224;1280;22136;-78
2023/02/10 17:28:24;;;;;;;52.50;23.20;;;;;;;;;;110011;1266;22302;-78
2023/02/10 17:30:54;;;;;;;54.70;23.10;;;;;;;;;;109813;1284;22152;-78
2023/02/10 17:33:24;;;;;;;62.50;24.40;;;;;;;;;;109907;1285;22974;-77
2023/02/10 17:36:38;;;;;;;56.80;23.40;;;;;;;;;;109727;1264;22233;-76
2023/02/10 17:49:18;;;;;;;64.60;26.00;;;;;;;;;;109468;1273;22215;-79
2023/02/10 17:52:13;;;;;;;69.20;26.70;;;;;;;;;;109269;1292;22171;-78
2023/02/10 17:54:40;;;;;;;63.30;27.60;;;;;;;;;;109400;1290;22188;-79
2023/02/10 18:04:24;;;;;;;62.10;25.40;;;;;;;;;;109142;1283;22921;-79
2023/02/10 18:10:46;;;;;;;83.40;29.60;;;;;;;;;;108375;1282;22232;-79